createdAt,value
2022-12-16T00:00:21.119Z,31.75
2022-12-16T00:02:49.637Z,30.13
2022-12-16T00:05:20.364Z,31.58
2022-12-16T00:07:48.915Z,27.60
2022-12-16T00:10:17.696Z,29.63
2022-12-16T00:12:46.295Z,29.45
2022-12-16T00:15:14.939Z,27.45
2022-12-16T00:17:43.478Z,26.38
2022-12-16T00:20:13.775Z,24.98
2022-12-16T00:22:43.984Z,27.63
2022-12-16T00:25:12.589Z,27.38
2022-12-16T00:27:41.023Z,26.77
2022-12-16T00:30:11.332Z,28.40
2022-12-16T00:32:40.178Z,25.70
2022-12-16T00:35:09.273Z,27.88
2022-12-16T00:37:38.005Z,27.90
2022-12-16T00:40:09.756Z,26.38
2022-12-16T00:42:38.245Z,25.35
2022-12-16T00:45:07.962Z,25.65
2022-12-16T00:47:40.948Z,25.67
2022-12-16T00:50:12.376Z,27.48
2022-12-16T00:52:41.053Z,26.75
2022-12-16T00:55:12.216Z,24.67
2022-12-16T00:57:40.805Z,26.25
2022-12-16T01:00:13.015Z,26.35
2022-12-16T01:02:42.162Z,24.48
2022-12-16T01:05:11.368Z,23.90
2022-12-16T01:07:39.883Z,26.17
2022-12-16T01:10:10.784Z,26.58
2022-12-16T01:12:39.395Z,26.38
2022-12-16T01:15:09.361Z,25.50
2022-12-16T01:17:37.991Z,26.75
2022-12-16T01:20:08.150Z,24.60
2022-12-16T01:22:37.319Z,25.98
2022-12-16T01:25:07.067Z,24.75
2022-12-16T01:27:37.043Z,26.92
2022-12-16T01:30:06.735Z,26.45
2022-12-16T01:32:35.273Z,23.23
2022-12-16T01:35:03.790Z,21.83
2022-12-16T01:37:32.693Z,23.52
2022-12-16T01:40:01.224Z,24.15
2022-12-16T01:42:31.347Z,24.95
2022-12-16T01:45:30.621Z,25.38
2022-12-16T01:48:01.111Z,27.45
2022-12-16T01:50:30.000Z,24.67
2022-12-16T01:53:00.093Z,25.73
2022-12-16T01:55:30.311Z,25.27
2022-12-16T01:58:04.121Z,22.73
2022-12-16T02:00:35.702Z,23.08
2022-12-16T02:03:04.815Z,23.15
2022-12-16T02:05:33.762Z,24.67
2022-12-16T02:08:04.241Z,21.88
2022-12-16T02:10:43.886Z,25.45
2022-12-16T02:13:20.701Z,24.02
2022-12-16T02:15:54.956Z,24.75
2022-12-16T02:18:28.712Z,23.20
2022-12-16T02:21:38.758Z,23.60
2022-12-16T02:24:39.210Z,22.58
2022-12-16T02:27:44.308Z,24.25
2022-12-16T02:30:49.051Z,22.52
2022-12-16T02:33:49.653Z,22.10
2022-12-16T02:36:30.460Z,22.58
2022-12-16T02:39:01.263Z,24.88
2022-12-16T02:41:38.169Z,20.92
2022-12-16T02:44:07.778Z,25.80
2022-12-16T02:46:42.763Z,21.48
2022-12-16T02:49:44.937Z,25.65
2022-12-16T02:52:13.502Z,23.27
2022-12-16T02:54:42.210Z,21.80
2022-12-16T02:57:26.309Z,24.20
2022-12-16T02:59:59.163Z,25.92
2022-12-16T03:02:32.111Z,23.20
2022-12-16T03:05:04.179Z,23.25
2022-12-16T03:07:33.844Z,24.25
2022-12-16T03:10:02.556Z,23.55
2022-12-16T03:12:31.012Z,21.75
2022-12-16T03:14:59.585Z,25.77
2022-12-16T03:17:29.564Z,22.23
2022-12-16T03:20:05.490Z,21.83
2022-12-16T03:22:35.435Z,21.70
2022-12-16T03:25:03.884Z,24.33
2022-12-16T03:27:35.833Z,23.98
2022-12-16T03:30:06.837Z,20.35
2022-12-16T03:32:39.216Z,22.30
2022-12-16T03:35:13.691Z,24.25
2022-12-16T03:37:42.403Z,21.65
2022-12-16T03:40:12.234Z,23.05
2022-12-16T03:42:40.726Z,23.67
2022-12-16T03:45:12.817Z,21.10
2022-12-16T03:47:42.805Z,19.52
2022-12-16T03:50:11.634Z,20.70
2022-12-16T03:52:40.233Z,22.90
2022-12-16T03:55:09.763Z,22.48
2022-12-16T03:57:38.317Z,20.95
2022-12-16T04:00:09.433Z,21.38
2022-12-16T04:02:38.203Z,20.42
2022-12-16T04:05:09.165Z,21.88
2022-12-16T04:07:37.736Z,22.08
2022-12-16T04:10:06.922Z,21.45
2022-12-16T04:12:53.157Z,22.55
2022-12-16T04:15:39.215Z,24.65
2022-12-16T04:18:25.167Z,20.92
2022-12-16T04:21:13.921Z,22.58
2022-12-16T04:24:05.403Z,21.58
2022-12-16T04:26:54.991Z,22.63
2022-12-16T04:29:23.581Z,19.02
2022-12-16T04:31:52.177Z,18.45
2022-12-16T04:34:29.623Z,20.80
2022-12-16T04:37:18.492Z,21.88
2022-12-16T04:40:04.643Z,21.60
2022-12-16T04:42:51.136Z,21.92
2022-12-16T04:45:37.364Z,19.90
2022-12-16T04:48:23.865Z,20.27
2022-12-16T04:51:10.008Z,21.63
2022-12-16T04:53:57.724Z,19.95
2022-12-16T04:56:43.813Z,20.95
2022-12-16T04:59:30.118Z,21.33
2022-12-16T05:02:16.072Z,21.35
2022-12-16T05:05:02.238Z,18.77
2022-12-16T05:07:48.207Z,20.88
2022-12-16T05:10:36.030Z,20.63
2022-12-16T05:13:21.903Z,19.60
2022-12-16T05:16:07.944Z,20.75
2022-12-16T05:18:53.926Z,18.08
2022-12-16T05:21:40.272Z,19.00
2022-12-16T05:24:26.934Z,20.33
2022-12-16T05:27:14.643Z,20.92
2022-12-16T05:30:00.563Z,21.02
2022-12-16T05:32:46.619Z,18.70
2022-12-16T05:35:32.887Z,19.23
2022-12-16T05:38:18.947Z,18.92
2022-12-16T05:41:05.014Z,20.00
2022-12-16T05:43:57.692Z,18.17
2022-12-16T05:46:43.466Z,17.50
2022-12-16T05:49:29.943Z,19.80
2022-12-16T05:52:15.994Z,19.70
2022-12-16T05:55:01.930Z,18.92
2022-12-16T05:57:47.838Z,17.95
2022-12-16T06:00:35.887Z,17.65
2022-12-16T06:03:21.905Z,18.35
2022-12-16T06:06:07.970Z,18.52
2022-12-16T06:08:53.801Z,21.15
2022-12-16T06:11:39.731Z,18.20
2022-12-16T06:14:25.963Z,19.75
2022-12-16T06:17:13.445Z,20.10
2022-12-16T06:19:58.538Z,18.88
2022-12-16T06:22:44.505Z,18.55
2022-12-16T06:25:30.467Z,17.45
2022-12-16T06:28:16.798Z,17.77
2022-12-16T06:31:02.945Z,17.70
2022-12-16T06:33:54.792Z,18.02
2022-12-16T06:36:41.389Z,18.92
2022-12-16T06:39:27.383Z,16.17
2022-12-16T06:42:13.558Z,17.85
2022-12-16T06:44:59.882Z,16.77
2022-12-16T06:47:45.765Z,18.20
2022-12-16T06:50:34.527Z,16.90
2022-12-16T06:53:20.827Z,18.58
2022-12-16T06:56:07.738Z,18.42
2022-12-16T06:58:50.538Z,16.55
2022-12-16T07:01:36.772Z,17.60
2022-12-16T07:04:27.574Z,19.15
2022-12-16T07:07:21.189Z,21.50
2022-12-16T07:10:07.370Z,20.10
2022-12-16T07:12:53.871Z,18.55
2022-12-16T07:15:40.130Z,18.88
2022-12-16T07:18:26.253Z,22.30
2022-12-16T07:21:12.522Z,19.23
2022-12-16T07:24:00.152Z,17.75
2022-12-16T07:26:46.326Z,19.52
2022-12-16T07:29:32.832Z,22.10
2022-12-16T07:32:19.104Z,17.83
2022-12-16T07:35:05.509Z,18.67
2022-12-16T07:37:52.019Z,19.90
2022-12-16T07:40:40.130Z,17.60
2022-12-16T07:43:25.860Z,17.30
2022-12-16T07:46:11.998Z,24.30
2022-12-16T07:48:57.727Z,19.35
2022-12-16T07:51:44.020Z,19.25
2022-12-16T07:54:29.782Z,19.58
2022-12-16T07:57:17.379Z,17.60
2022-12-16T08:00:03.287Z,18.58
2022-12-16T08:02:51.452Z,20.75
2022-12-16T08:05:37.532Z,16.15
2022-12-16T08:08:23.397Z,17.38
2022-12-16T08:11:09.526Z,16.65
2022-12-16T08:13:56.758Z,18.58
2022-12-16T08:16:43.086Z,19.65
2022-12-16T08:19:29.264Z,18.50
2022-12-16T08:22:15.369Z,18.33
2022-12-16T08:25:01.720Z,19.45
2022-12-16T08:27:47.606Z,16.52
2022-12-16T08:30:35.709Z,18.88
2022-12-16T08:33:21.684Z,19.98
2022-12-16T08:36:08.074Z,18.45
2022-12-16T08:38:54.834Z,16.00
2022-12-16T08:41:42.090Z,15.35
2022-12-16T08:44:28.197Z,18.92
2022-12-16T08:47:15.781Z,18.70
2022-12-16T08:50:02.528Z,16.73
2022-12-16T08:52:49.120Z,18.48
2022-12-16T08:55:35.578Z,18.00
2022-12-16T08:58:21.579Z,17.70
2022-12-16T09:01:22.284Z,18.58
2022-12-16T09:04:10.059Z,18.65
2022-12-16T09:06:56.011Z,20.83
2022-12-16T09:09:41.844Z,16.45
2022-12-16T09:12:24.266Z,18.10
2022-12-16T09:15:10.083Z,18.80
2022-12-16T09:17:55.852Z,18.20
2022-12-16T09:20:43.632Z,17.83
2022-12-16T09:23:29.724Z,16.42
2022-12-16T09:26:16.325Z,19.42
2022-12-16T09:29:02.086Z,15.77
2022-12-16T09:31:47.872Z,17.75
2022-12-16T09:34:33.684Z,17.92
2022-12-16T09:37:21.068Z,19.83
2022-12-16T09:40:06.836Z,20.38
2022-12-16T09:42:59.460Z,15.02
2022-12-16T09:45:58.147Z,19.08
2022-12-16T09:48:48.228Z,18.30
2022-12-16T09:51:34.223Z,18.02
2022-12-16T09:54:22.239Z,17.80
2022-12-16T09:57:10.824Z,19.40
2022-12-16T09:59:59.875Z,20.05
2022-12-16T10:02:51.550Z,22.63
2022-12-16T10:05:43.169Z,17.55
2022-12-16T10:08:37.158Z,15.40
2022-12-16T10:11:31.489Z,16.63
2022-12-16T10:14:20.603Z,17.52
2022-12-16T10:17:10.799Z,149.80
2022-12-16T10:20:16.723Z,44.38
2022-12-16T10:23:06.836Z,27.33
2022-12-16T10:25:57.862Z,29.98
2022-12-16T10:28:57.979Z,30.23
2022-12-16T10:31:44.566Z,27.10
2022-12-16T10:34:32.831Z,26.90
2022-12-16T10:37:21.237Z,29.83
2022-12-16T10:40:14.165Z,26.90
2022-12-16T10:43:05.864Z,26.98
2022-12-16T10:45:55.355Z,27.55
2022-12-16T10:48:56.288Z,29.05
2022-12-16T10:51:45.003Z,23.52
2022-12-16T10:54:50.707Z,25.33
2022-12-16T10:57:47.308Z,24.60
2022-12-16T11:00:35.317Z,25.15
2022-12-16T11:03:40.432Z,24.50
2022-12-16T11:06:26.956Z,26.55
2022-12-16T11:09:12.754Z,25.77
2022-12-16T11:11:58.834Z,25.08
2022-12-16T11:15:05.731Z,25.27
2022-12-16T11:17:53.887Z,26.25
2022-12-16T11:20:44.971Z,24.13
2022-12-16T11:23:37.290Z,24.52
2022-12-16T11:26:23.122Z,19.90
2022-12-16T11:29:27.781Z,26.83
2022-12-16T11:32:21.876Z,24.02
2022-12-16T11:35:13.572Z,24.55
2022-12-16T11:38:01.294Z,24.08
2022-12-16T11:40:47.447Z,23.42
2022-12-16T11:43:34.727Z,22.25
2022-12-16T11:46:24.002Z,23.15
2022-12-16T11:49:13.375Z,25.48
2022-12-16T11:52:21.225Z,22.92
2022-12-16T11:55:13.298Z,21.30
2022-12-16T11:58:04.032Z,22.80
2022-12-16T12:00:50.220Z,24.15
2022-12-16T12:03:39.973Z,24.25
2022-12-16T12:06:38.816Z,21.75
2022-12-16T12:09:28.497Z,21.23
2022-12-16T12:12:19.323Z,20.40
2022-12-16T12:15:15.834Z,19.65
2022-12-16T12:18:06.755Z,22.50
2022-12-16T12:21:03.256Z,20.77
2022-12-16T12:23:57.081Z,24.05
2022-12-16T12:26:46.022Z,19.42
2022-12-16T12:29:37.425Z,17.25
2022-12-16T12:32:33.597Z,20.30
2022-12-16T12:35:24.238Z,21.58
2022-12-16T12:38:13.584Z,22.77
2022-12-16T12:41:05.423Z,21.67
2022-12-16T12:44:00.634Z,22.70
2022-12-16T12:46:51.712Z,24.17
2022-12-16T12:49:46.846Z,20.92
2022-12-16T12:52:41.931Z,18.52
2022-12-16T12:55:32.245Z,22.80
2022-12-16T12:58:18.157Z,21.95
2022-12-16T13:01:07.160Z,20.90
2022-12-16T13:03:57.604Z,18.38
2022-12-16T13:06:43.851Z,22.27
2022-12-16T13:09:52.775Z,19.60
2022-12-16T13:12:47.851Z,20.55
2022-12-16T13:15:53.187Z,17.90
2022-12-16T13:18:44.528Z,20.60
2022-12-16T13:22:10.595Z,22.23
2022-12-16T13:25:00.557Z,22.60
2022-12-16T13:27:47.572Z,23.75
2022-12-16T13:30:42.452Z,28.35
2022-12-16T13:33:42.801Z,26.27
2022-12-16T13:36:28.999Z,24.63
2022-12-16T13:39:33.060Z,31.27
2022-12-16T13:42:19.323Z,27.85
2022-12-16T13:45:17.845Z,31.52
2022-12-16T13:48:43.280Z,27.20
2022-12-16T13:51:45.144Z,33.65
2022-12-16T13:54:32.560Z,34.58
2022-12-16T13:57:18.789Z,34.55
2022-12-16T14:00:04.762Z,27.17
2022-12-16T14:02:51.989Z,28.85
2022-12-16T14:05:40.941Z,29.73
2022-12-16T14:08:31.284Z,27.00
2022-12-16T14:11:21.042Z,28.50
2022-12-16T14:14:18.584Z,25.98
2022-12-16T14:17:08.864Z,29.05
2022-12-16T14:20:05.083Z,30.02
2022-12-16T14:23:06.076Z,29.75
2022-12-16T14:25:52.591Z,30.92
2022-12-16T14:28:45.670Z,28.92
2022-12-16T14:31:35.299Z,28.02
2022-12-16T14:34:21.897Z,25.92
2022-12-16T14:37:07.717Z,28.10
2022-12-16T14:39:57.566Z,24.95
2022-12-16T14:42:44.952Z,25.58
2022-12-16T14:45:45.513Z,24.42
2022-12-16T14:48:49.242Z,25.55
2022-12-16T14:51:47.153Z,25.48
2022-12-16T14:54:43.079Z,27.38
2022-12-16T14:57:32.527Z,30.33
2022-12-16T15:00:33.450Z,27.13
2022-12-16T15:03:25.596Z,28.40
2022-12-16T15:06:12.153Z,30.25
2022-12-16T15:09:06.340Z,25.48
2022-12-16T15:11:52.313Z,27.27
2022-12-16T15:14:42.612Z,26.17
2022-12-16T15:17:38.511Z,26.23
2022-12-16T15:20:35.056Z,29.55
2022-12-16T15:23:21.399Z,24.38
2022-12-16T15:26:09.008Z,24.05
2022-12-16T15:28:59.983Z,24.88
2022-12-16T15:31:50.914Z,31.75
2022-12-16T15:34:43.035Z,24.23
2022-12-16T15:37:42.230Z,28.15
2022-12-16T15:40:41.314Z,26.15
2022-12-16T15:43:43.618Z,29.58
2022-12-16T15:46:40.457Z,27.85
2022-12-16T15:49:34.939Z,27.05
2022-12-16T15:52:21.202Z,27.25
2022-12-16T15:55:13.350Z,25.00
2022-12-16T15:58:13.826Z,26.60
2022-12-16T16:01:00.091Z,28.60
2022-12-16T16:03:47.602Z,25.63
2022-12-16T16:06:35.680Z,29.73
2022-12-16T16:09:31.184Z,26.52
2022-12-16T16:12:18.212Z,29.20
2022-12-16T16:15:04.188Z,28.30
2022-12-16T16:17:50.538Z,28.85
2022-12-16T16:20:37.537Z,26.90
2022-12-16T16:23:23.430Z,23.85
2022-12-16T16:26:09.606Z,26.88
2022-12-16T16:28:57.073Z,25.52
2022-12-16T16:31:43.373Z,26.83
2022-12-16T16:34:29.866Z,27.83
2022-12-16T16:37:16.520Z,26.10
2022-12-16T16:40:02.868Z,26.75
2022-12-16T16:42:49.014Z,29.23
2022-12-16T16:45:36.762Z,28.23
2022-12-16T16:48:28.918Z,26.65
2022-12-16T16:51:15.353Z,23.35
2022-12-16T16:54:01.182Z,25.70
2022-12-16T16:56:47.610Z,24.52
2022-12-16T16:59:33.564Z,26.52
2022-12-16T17:02:20.967Z,25.98
2022-12-16T17:05:07.183Z,26.52
2022-12-16T17:07:54.093Z,27.30
2022-12-16T17:10:40.309Z,28.55
2022-12-16T17:13:27.518Z,25.30
2022-12-16T17:16:13.726Z,27.80
2022-12-16T17:19:01.220Z,25.63
2022-12-16T17:21:47.339Z,27.20
2022-12-16T17:24:33.734Z,26.65
2022-12-16T17:27:26.527Z,27.88
2022-12-16T17:30:13.209Z,28.05
2022-12-16T17:32:59.191Z,29.98
2022-12-16T17:35:46.614Z,26.42
2022-12-16T17:38:32.503Z,26.80
2022-12-16T17:41:18.604Z,25.35
2022-12-16T17:44:04.640Z,28.88
2022-12-16T17:46:50.751Z,27.10
2022-12-16T17:49:38.409Z,25.80
2022-12-16T17:52:25.948Z,26.08
2022-12-16T17:55:11.915Z,26.50
2022-12-16T17:57:57.624Z,26.27
2022-12-16T18:00:43.683Z,31.95
2022-12-16T18:03:29.898Z,34.53
2022-12-16T18:06:15.852Z,35.85
2022-12-16T18:09:03.770Z,45.45
2022-12-16T18:11:49.832Z,48.35
2022-12-16T18:14:35.638Z,55.80
2022-12-16T18:17:21.897Z,63.90
2022-12-16T18:20:07.588Z,61.95
2022-12-16T18:22:54.646Z,51.17
2022-12-16T18:25:42.420Z,46.15
2022-12-16T18:28:28.260Z,41.38
2022-12-16T18:31:14.371Z,38.53
2022-12-16T18:34:00.681Z,39.00
2022-12-16T18:36:46.660Z,39.15
2022-12-16T18:39:32.619Z,42.67
2022-12-16T18:42:19.800Z,33.28
2022-12-16T18:45:08.138Z,39.88
2022-12-16T18:47:53.978Z,38.38
2022-12-16T18:50:40.214Z,36.15
2022-12-16T18:53:26.035Z,34.88
2022-12-16T18:56:20.679Z,34.15
2022-12-16T18:59:08.082Z,35.53
2022-12-16T19:02:02.781Z,33.17
2022-12-16T19:04:51.140Z,32.75
2022-12-16T19:07:36.806Z,36.83
2022-12-16T19:10:23.643Z,32.17
2022-12-16T19:13:09.755Z,32.72
2022-12-16T19:15:56.998Z,32.35
2022-12-16T19:18:43.261Z,32.15
2022-12-16T19:21:29.233Z,31.55
2022-12-16T19:24:15.435Z,27.25
2022-12-16T19:27:01.501Z,36.47
2022-12-16T19:29:47.329Z,34.60
2022-12-16T19:32:31.306Z,39.53
2022-12-16T19:35:17.334Z,46.88
2022-12-16T19:38:03.357Z,45.05
2022-12-16T19:40:49.658Z,50.65
2022-12-16T19:43:35.761Z,47.58
2022-12-16T19:46:21.962Z,50.88
2022-12-16T19:49:09.198Z,47.60
2022-12-16T19:55:01.277Z,44.97
2022-12-16T19:57:47.233Z,45.78
2022-12-16T20:00:35.490Z,40.80
2022-12-16T20:03:21.864Z,43.60
2022-12-16T20:06:17.869Z,40.45
2022-12-16T20:09:04.489Z,43.65
2022-12-16T20:11:50.485Z,37.88
2022-12-16T20:14:38.049Z,36.15
2022-12-16T20:17:24.195Z,40.42
2022-12-16T20:20:10.086Z,36.67
2022-12-16T20:22:57.755Z,43.28
2022-12-16T20:25:43.867Z,40.83
2022-12-16T20:28:30.320Z,39.75
2022-12-16T20:31:19.474Z,34.05
2022-12-16T20:34:05.320Z,38.58
2022-12-16T20:36:51.431Z,37.33
2022-12-16T20:39:38.934Z,40.50
2022-12-16T20:42:24.988Z,40.08
2022-12-16T20:45:10.845Z,39.78
2022-12-16T20:47:57.205Z,37.63
2022-12-16T20:50:43.220Z,37.83
2022-12-16T20:53:29.094Z,38.35
2022-12-16T20:56:19.802Z,37.90
2022-12-16T20:59:07.409Z,36.65
2022-12-16T21:04:59.082Z,35.22
2022-12-16T21:07:45.189Z,36.22
2022-12-16T21:10:31.351Z,39.20
2022-12-16T21:13:26.388Z,34.05
2022-12-16T21:16:12.459Z,36.53
2022-12-16T21:18:58.247Z,35.13
2022-12-16T21:21:44.502Z,37.13
2022-12-16T21:24:30.436Z,36.53
2022-12-16T21:27:16.655Z,35.92
2022-12-16T21:30:04.110Z,41.30
2022-12-16T21:32:50.460Z,35.03
2022-12-16T21:35:39.244Z,33.15
2022-12-16T21:38:27.977Z,38.30
2022-12-16T21:41:13.894Z,33.08
2022-12-16T21:43:59.877Z,34.70
2022-12-16T21:46:47.196Z,29.65
2022-12-16T21:49:32.815Z,37.60
2022-12-16T21:52:22.098Z,35.92
2022-12-16T21:55:08.575Z,38.08
2022-12-16T21:57:56.584Z,33.83
2022-12-16T22:00:42.882Z,32.67
2022-12-16T22:03:30.538Z,38.72
2022-12-16T22:06:17.789Z,31.75
2022-12-16T22:09:03.805Z,34.80
2022-12-16T22:11:49.943Z,31.92
2022-12-16T22:14:35.813Z,33.83
2022-12-16T22:17:21.838Z,33.72
2022-12-16T22:20:09.614Z,34.85
2022-12-16T22:22:57.652Z,34.65
2022-12-16T22:25:43.769Z,32.08
2022-12-16T22:28:29.631Z,30.40
2022-12-16T22:31:16.435Z,31.27
2022-12-16T22:34:02.630Z,31.58
2022-12-16T22:36:49.991Z,32.92
2022-12-16T22:39:39.973Z,33.40
2022-12-16T22:42:28.621Z,30.73
2022-12-16T22:45:14.756Z,33.67
2022-12-16T22:48:00.921Z,37.22
2022-12-16T22:50:47.822Z,31.55
2022-12-16T22:53:35.387Z,29.42
2022-12-16T22:56:21.487Z,34.80
2022-12-16T22:59:08.319Z,30.48
2022-12-16T23:01:54.640Z,30.90
2022-12-16T23:04:43.231Z,30.67
2022-12-16T23:07:29.035Z,33.22
2022-12-16T23:10:16.556Z,32.75
2022-12-16T23:13:05.106Z,30.50
2022-12-16T23:15:51.298Z,28.73
2022-12-16T23:18:38.345Z,29.52
2022-12-16T23:21:32.252Z,28.25
2022-12-16T23:24:18.680Z,28.98
2022-12-16T23:27:06.141Z,33.72
2022-12-16T23:29:52.147Z,32.28
2022-12-16T23:32:30.477Z,36.38
2022-12-16T23:32:38.152Z,33.13
2022-12-16T23:35:25.141Z,28.88
2022-12-16T23:38:18.181Z,29.02
2022-12-16T23:41:04.188Z,30.05
2022-12-16T23:43:51.636Z,33.13
2022-12-16T23:46:38.288Z,29.25
2022-12-16T23:49:24.152Z,30.70
2022-12-16T23:52:10.000Z,27.05
2022-12-16T23:54:55.896Z,29.55
2022-12-16T23:57:42.184Z,32.60
